createdAt,value
2024-05-09T00:00:35.571Z,100.00
2024-05-09T00:03:07.095Z,100.00
2024-05-09T00:05:33.918Z,100.00
2024-05-09T00:08:00.493Z,100.00
2024-05-09T00:10:35.356Z,100.00
2024-05-09T00:13:04.761Z,100.00
2024-05-09T00:15:31.532Z,100.00
2024-05-09T00:17:58.259Z,100.00
2024-05-09T00:20:33.075Z,100.00
2024-05-09T00:23:06.536Z,100.00
2024-05-09T00:25:33.192Z,100.00
2024-05-09T00:27:59.653Z,100.00
2024-05-09T00:30:33.423Z,100.00
2024-05-09T00:33:02.865Z,100.00
2024-05-09T00:35:29.771Z,100.00
2024-05-09T00:37:56.383Z,100.00
2024-05-09T00:40:31.020Z,100.00
2024-05-09T00:43:05.660Z,100.00
2024-05-09T00:45:32.096Z,100.00
2024-05-09T00:48:01.650Z,100.00
2024-05-09T00:50:35.672Z,100.00
2024-05-09T00:53:05.652Z,100.00
2024-05-09T00:55:32.291Z,100.00
2024-05-09T00:57:58.766Z,100.00
2024-05-09T01:00:31.731Z,100.00
2024-05-09T01:03:05.626Z,100.00
2024-05-09T01:05:32.618Z,100.00
2024-05-09T01:07:59.184Z,100.00
2024-05-09T01:11:28.847Z,100.00
2024-05-09T01:13:55.516Z,100.00
2024-05-09T01:16:22.088Z,100.00
2024-05-09T01:18:48.763Z,100.00
2024-05-09T01:21:15.287Z,100.00
2024-05-09T01:23:41.821Z,100.00
2024-05-09T01:26:08.370Z,100.00
2024-05-09T01:28:34.839Z,100.00
2024-05-09T01:31:01.302Z,100.00
2024-05-09T01:33:28.000Z,100.00
2024-05-09T01:35:54.686Z,100.00
2024-05-09T01:38:21.160Z,100.00
2024-05-09T01:40:48.670Z,100.00
2024-05-09T01:43:16.001Z,100.00
2024-05-09T01:45:42.784Z,100.00
2024-05-09T01:48:10.493Z,100.00
2024-05-09T01:50:41.333Z,100.00
2024-05-09T01:53:11.498Z,100.00
2024-05-09T01:55:38.584Z,100.00
2024-05-09T01:58:05.430Z,100.00
2024-05-09T02:00:38.852Z,100.00
2024-05-09T02:03:15.371Z,100.00
2024-05-09T02:05:49.368Z,100.00
2024-05-09T02:08:18.374Z,100.00
2024-05-09T02:10:46.370Z,100.00
2024-05-09T02:13:13.860Z,100.00
2024-05-09T02:15:40.588Z,100.00
2024-05-09T02:18:08.544Z,100.00
2024-05-09T02:20:38.401Z,100.00
2024-05-09T02:23:06.172Z,100.00
2024-05-09T02:25:33.384Z,100.00
2024-05-09T02:27:59.979Z,100.00
2024-05-09T02:30:36.520Z,100.00
2024-05-09T02:33:07.802Z,100.00
2024-05-09T02:35:34.815Z,100.00
2024-05-09T02:38:01.733Z,100.00
2024-05-09T02:40:36.273Z,100.00
2024-05-09T02:43:05.678Z,100.00
2024-05-09T02:45:32.390Z,100.00
2024-05-09T02:47:59.108Z,100.00
2024-05-09T02:50:33.911Z,100.00
2024-05-09T02:53:05.189Z,100.00
2024-05-09T02:55:32.055Z,100.00
2024-05-09T02:58:00.463Z,100.00
2024-05-09T03:00:35.164Z,100.00
2024-05-09T03:03:08.164Z,100.00
2024-05-09T03:05:36.049Z,100.00
2024-05-09T03:08:02.737Z,100.00
2024-05-09T03:10:35.260Z,100.00
2024-05-09T03:13:15.270Z,100.00
2024-05-09T03:15:43.158Z,100.00
2024-05-09T03:18:10.660Z,100.00
2024-05-09T03:20:38.050Z,100.00
2024-05-09T03:23:07.845Z,100.00
2024-05-09T03:25:35.185Z,100.00
2024-05-09T03:28:01.933Z,100.00
2024-05-09T03:30:36.222Z,100.00
2024-05-09T03:33:12.725Z,100.00
2024-05-09T03:35:40.288Z,100.00
2024-05-09T03:38:06.814Z,100.00
2024-05-09T03:40:33.302Z,100.00
2024-05-09T03:42:59.864Z,100.00
2024-05-09T03:45:26.356Z,100.00
2024-05-09T03:47:53.053Z,100.00
2024-05-09T03:50:26.503Z,100.00
2024-05-09T03:53:00.427Z,100.00
2024-05-09T03:55:27.127Z,100.00
2024-05-09T03:57:53.610Z,100.00
2024-05-09T04:00:30.063Z,100.00
2024-05-09T04:03:01.907Z,100.00
2024-05-09T04:05:30.573Z,100.00
2024-05-09T04:07:57.311Z,100.00
2024-05-09T04:10:30.158Z,100.00
2024-05-09T04:12:59.585Z,100.00
2024-05-09T04:15:26.517Z,100.00
2024-05-09T04:17:53.295Z,100.00
2024-05-09T04:20:29.291Z,100.00
2024-05-09T04:23:04.264Z,100.00
2024-05-09T04:25:31.991Z,100.00
2024-05-09T04:27:58.436Z,100.00
2024-05-09T04:30:34.488Z,100.00
2024-05-09T04:33:05.860Z,100.00
2024-05-09T04:35:32.707Z,100.00
2024-05-09T04:37:59.564Z,100.00
2024-05-09T04:40:33.031Z,100.00
2024-05-09T04:43:03.000Z,100.00
2024-05-09T04:45:29.495Z,100.00
2024-05-09T04:47:56.290Z,100.00
2024-05-09T04:50:30.325Z,100.00
2024-05-09T04:53:03.401Z,100.00
2024-05-09T04:55:30.027Z,100.00
2024-05-09T04:57:56.560Z,100.00
2024-05-09T05:00:32.301Z,100.00
2024-05-09T05:03:09.065Z,100.00
2024-05-09T05:05:41.276Z,100.00
2024-05-09T05:08:12.253Z,100.00
2024-05-09T05:10:38.911Z,100.00
2024-05-09T05:13:22.460Z,100.00
2024-05-09T05:15:52.429Z,100.00
2024-05-09T05:18:19.427Z,100.00
2024-05-09T05:20:46.317Z,100.00
2024-05-09T05:23:15.148Z,100.00
2024-05-09T05:25:42.686Z,100.00
2024-05-09T05:28:09.738Z,100.00
2024-05-09T05:30:37.803Z,100.00
2024-05-09T05:33:13.085Z,100.00
2024-05-09T05:35:40.989Z,100.00
2024-05-09T05:38:08.682Z,100.00
2024-05-09T05:40:38.352Z,100.00
2024-05-09T05:43:08.523Z,100.00
2024-05-09T05:45:35.262Z,100.00
2024-05-09T05:48:04.035Z,100.00
2024-05-09T05:50:35.866Z,100.00
2024-05-09T05:53:06.398Z,100.00
2024-05-09T05:55:33.180Z,100.00
2024-05-09T05:58:00.639Z,100.00
2024-05-09T06:00:34.406Z,100.00
2024-05-09T06:03:05.286Z,100.00
2024-05-09T06:05:32.380Z,100.00
2024-05-09T06:07:59.198Z,100.00
2024-05-09T06:10:30.397Z,100.00
2024-05-09T06:13:04.291Z,100.00
2024-05-09T06:15:30.763Z,100.00
2024-05-09T06:17:57.332Z,100.00
2024-05-09T06:20:31.947Z,100.00
2024-05-09T06:23:03.276Z,100.00
2024-05-09T06:25:29.856Z,100.00
2024-05-09T06:27:56.358Z,100.00
2024-05-09T06:30:30.111Z,100.00
2024-05-09T06:33:05.193Z,100.00
2024-05-09T06:35:32.562Z,100.00
2024-05-09T06:37:59.242Z,100.00
2024-05-09T06:40:34.200Z,100.00
2024-05-09T06:43:04.726Z,100.00
2024-05-09T06:45:31.391Z,100.00
2024-05-09T06:47:58.122Z,100.00
2024-05-09T06:50:28.282Z,100.00
2024-05-09T06:52:58.191Z,100.00
2024-05-09T06:55:24.770Z,100.00
2024-05-09T06:57:51.227Z,100.00
2024-05-09T07:00:26.788Z,100.00
2024-05-09T07:02:58.418Z,100.00
2024-05-09T07:05:26.251Z,100.00
2024-05-09T07:07:52.921Z,100.00
2024-05-09T07:10:28.332Z,100.00
2024-05-09T07:12:59.062Z,100.00
2024-05-09T07:15:25.708Z,100.00
2024-05-09T07:17:52.456Z,100.00
2024-05-09T07:20:27.705Z,100.00
2024-05-09T07:23:00.487Z,100.00
2024-05-09T07:25:26.945Z,100.00
2024-05-09T07:27:53.423Z,100.00
2024-05-09T07:30:27.111Z,100.00
2024-05-09T07:32:57.800Z,100.00
2024-05-09T07:35:24.673Z,100.00
2024-05-09T07:37:51.257Z,100.00
2024-05-09T07:42:49.659Z,100.00
2024-05-09T07:45:38.996Z,100.00
2024-05-09T07:52:23.398Z,100.00
2024-05-09T07:53:38.448Z,100.00
2024-05-09T07:56:06.489Z,100.00
2024-05-09T07:58:33.162Z,100.00
2024-05-09T08:00:59.772Z,100.00
2024-05-09T08:03:26.399Z,100.00
2024-05-09T08:05:54.168Z,100.00
2024-05-09T08:08:20.636Z,100.00
2024-05-09T08:10:47.177Z,100.00
2024-05-09T08:13:14.101Z,100.00
2024-05-09T08:15:40.791Z,100.00
2024-05-09T08:18:08.369Z,100.00
2024-05-09T08:20:37.920Z,100.00
2024-05-09T08:23:04.792Z,100.00
2024-05-09T08:25:31.271Z,100.00
2024-05-09T08:27:58.037Z,100.00
2024-05-09T08:30:32.515Z,100.00
2024-05-09T08:33:03.915Z,100.00
2024-05-09T08:35:30.596Z,100.00
2024-05-09T08:37:57.239Z,100.00
2024-05-09T08:40:30.904Z,100.00
2024-05-09T08:43:02.859Z,100.00
2024-05-09T08:45:30.199Z,100.00
2024-05-09T08:48:01.156Z,100.00
2024-05-09T08:50:32.169Z,99.27
2024-05-09T08:53:05.081Z,89.73
2024-05-09T08:55:32.560Z,96.65
2024-05-09T08:58:03.332Z,97.57
2024-05-09T09:00:36.761Z,93.63
2024-05-09T09:03:08.304Z,98.05
2024-05-09T09:05:38.363Z,95.46
2024-05-09T09:08:07.849Z,97.14
2024-05-09T09:10:35.537Z,100.00
2024-05-09T09:13:04.461Z,97.49
2024-05-09T09:15:31.547Z,100.00
2024-05-09T09:18:01.562Z,99.82
2024-05-09T09:20:35.780Z,98.62
2024-05-09T09:23:04.517Z,94.33
2024-05-09T09:25:31.702Z,95.03
2024-05-09T09:27:58.778Z,93.87
2024-05-09T09:30:35.010Z,88.59
2024-05-09T09:33:04.894Z,94.14
2024-05-09T09:35:31.750Z,92.42
2024-05-09T09:38:02.396Z,91.76
2024-05-09T09:40:35.993Z,95.98
2024-05-09T09:43:09.506Z,89.10
2024-05-09T09:45:36.520Z,95.94
2024-05-09T09:48:04.875Z,90.58
2024-05-09T09:50:35.264Z,87.24
2024-05-09T09:53:04.625Z,82.26
2024-05-09T09:55:32.683Z,84.28
2024-05-09T09:57:59.613Z,91.27
2024-05-09T10:00:32.622Z,84.11
2024-05-09T10:03:00.571Z,86.49
2024-05-09T10:05:28.220Z,79.81
2024-05-09T10:07:56.331Z,83.74
2024-05-09T10:10:31.418Z,80.40
2024-05-09T10:13:00.780Z,82.50
2024-05-09T10:15:27.708Z,81.63
2024-05-09T10:17:54.760Z,85.68
2024-05-09T10:20:27.978Z,83.95
2024-05-09T10:22:57.404Z,82.04
2024-05-09T10:25:24.994Z,85.57
2024-05-09T10:27:55.759Z,81.72
2024-05-09T10:30:33.652Z,79.38
2024-05-09T10:33:02.435Z,79.16
2024-05-09T10:35:31.432Z,77.78
2024-05-09T10:38:05.726Z,77.59
2024-05-09T10:40:32.627Z,76.53
2024-05-09T10:43:02.570Z,75.28
2024-05-09T10:45:31.857Z,73.75
2024-05-09T10:47:58.592Z,72.67
2024-05-09T10:50:29.212Z,76.38
2024-05-09T10:53:00.433Z,74.30
2024-05-09T10:55:27.384Z,73.86
2024-05-09T10:57:54.136Z,69.49
2024-05-09T11:00:27.519Z,72.22
2024-05-09T11:02:59.870Z,71.56
2024-05-09T11:05:26.844Z,72.72
2024-05-09T11:07:53.555Z,72.67
2024-05-09T11:10:27.392Z,70.95
2024-05-09T11:12:58.455Z,74.39
2024-05-09T11:15:25.740Z,74.45
2024-05-09T11:17:52.305Z,73.53
2024-05-09T11:20:26.461Z,72.49
2024-05-09T11:22:57.625Z,76.03
2024-05-09T11:25:24.250Z,72.59
2024-05-09T11:27:51.112Z,73.33
2024-05-09T11:30:26.707Z,82.58
2024-05-09T11:32:58.723Z,77.80
2024-05-09T11:35:26.354Z,76.15
2024-05-09T11:37:52.852Z,74.36
2024-05-09T11:40:25.329Z,74.53
2024-05-09T11:42:55.083Z,73.90
2024-05-09T11:45:21.967Z,73.13
2024-05-09T11:47:49.201Z,75.31
2024-05-09T11:50:22.692Z,78.33
2024-05-09T11:52:55.972Z,78.39
2024-05-09T11:55:26.720Z,80.38
2024-05-09T11:57:54.633Z,78.09
2024-05-09T12:00:29.501Z,75.32
2024-05-09T12:03:05.427Z,76.76
2024-05-09T12:05:32.946Z,78.12
2024-05-09T12:08:00.578Z,80.64
2024-05-09T12:10:33.096Z,79.11
2024-05-09T12:13:02.364Z,77.48
2024-05-09T12:15:29.430Z,79.23
2024-05-09T12:17:58.919Z,81.43
2024-05-09T12:20:35.306Z,78.49
2024-05-09T12:23:05.243Z,80.79
2024-05-09T12:25:31.741Z,75.32
2024-05-09T12:27:58.307Z,78.20
2024-05-09T12:30:35.224Z,79.54
2024-05-09T12:33:05.834Z,76.40
2024-05-09T12:35:32.644Z,76.39
2024-05-09T12:37:59.248Z,77.05
2024-05-09T12:40:34.579Z,78.73
2024-05-09T12:43:04.831Z,77.95
2024-05-09T12:45:31.725Z,75.55
2024-05-09T12:47:58.489Z,72.48
2024-05-09T12:50:31.709Z,72.29
2024-05-09T12:53:00.239Z,72.21
2024-05-09T12:55:28.114Z,79.77
2024-05-09T12:57:55.250Z,74.07
2024-05-09T13:00:28.180Z,74.73
2024-05-09T13:03:00.234Z,73.59
2024-05-09T13:05:26.993Z,72.48
2024-05-09T13:07:53.560Z,75.25
2024-05-09T13:10:28.951Z,71.56
2024-05-09T13:12:59.222Z,68.38
2024-05-09T13:15:25.839Z,67.75
2024-05-09T13:17:52.822Z,69.94
2024-05-09T13:20:28.708Z,68.85
2024-05-09T13:23:01.580Z,66.13
2024-05-09T13:25:28.137Z,70.16
2024-05-09T13:27:54.864Z,67.96
2024-05-09T13:30:29.169Z,71.48
2024-05-09T13:33:04.401Z,70.35
2024-05-09T13:35:32.004Z,66.61
2024-05-09T13:37:58.513Z,67.86
2024-05-09T13:40:32.215Z,70.57
2024-05-09T13:43:01.882Z,67.89
2024-05-09T13:45:28.595Z,70.33
2024-05-09T13:47:55.493Z,67.85
2024-05-09T13:50:30.965Z,67.16
2024-05-09T13:53:01.445Z,71.91
2024-05-09T13:55:27.974Z,68.54
2024-05-09T13:57:54.570Z,71.80
2024-05-09T14:02:50.542Z,74.95
2024-05-09T14:05:17.470Z,74.30
2024-05-09T14:07:44.440Z,74.29
2024-05-09T14:10:19.844Z,73.26
2024-05-09T14:12:52.486Z,75.23
2024-05-09T14:15:18.938Z,81.02
2024-05-09T14:17:46.302Z,80.03
2024-05-09T14:20:16.644Z,78.97
2024-05-09T14:22:49.755Z,78.91
2024-05-09T14:25:16.360Z,75.15
2024-05-09T14:27:43.515Z,76.25
2024-05-09T14:30:18.097Z,72.04
2024-05-09T14:32:52.096Z,74.27
2024-05-09T14:35:18.688Z,73.76
2024-05-09T14:37:45.205Z,77.53
2024-05-09T14:40:25.986Z,75.12
2024-05-09T14:43:01.045Z,78.69
2024-05-09T14:45:28.961Z,79.21
2024-05-09T14:47:55.648Z,78.00
2024-05-09T14:50:28.073Z,76.49
2024-05-09T14:53:01.372Z,83.55
2024-05-09T14:55:27.985Z,76.71
2024-05-09T14:57:54.590Z,79.84
2024-05-09T15:00:26.366Z,80.87
2024-05-09T15:02:59.342Z,78.99
2024-05-09T15:05:25.979Z,77.09
2024-05-09T15:07:52.578Z,80.04
2024-05-09T15:10:26.637Z,81.86
2024-05-09T15:13:00.050Z,79.47
2024-05-09T15:15:26.780Z,78.70
2024-05-09T15:17:54.504Z,78.76
2024-05-09T15:20:30.350Z,83.81
2024-05-09T15:23:01.069Z,84.67
2024-05-09T15:25:27.788Z,87.36
2024-05-09T15:27:54.697Z,87.61
2024-05-09T15:30:29.819Z,90.64
2024-05-09T15:32:58.844Z,94.91
2024-05-09T15:35:25.351Z,97.75
2024-05-09T15:37:51.822Z,100.00
2024-05-09T15:40:26.447Z,100.00
2024-05-09T15:43:02.090Z,100.00
2024-05-09T15:45:31.858Z,100.00
2024-05-09T15:47:58.971Z,100.00
2024-05-09T15:50:35.380Z,100.00
2024-05-09T15:53:05.899Z,100.00
2024-05-09T15:55:33.947Z,100.00
2024-05-09T15:58:02.166Z,100.00
2024-05-09T16:00:37.168Z,100.00
2024-05-09T16:03:07.535Z,100.00
2024-05-09T16:05:34.476Z,100.00
2024-05-09T16:08:01.430Z,100.00
2024-05-09T16:10:32.655Z,100.00
2024-05-09T16:13:00.905Z,100.00
2024-05-09T16:15:27.562Z,100.00
2024-05-09T16:17:54.296Z,100.00
2024-05-09T16:20:33.846Z,100.00
2024-05-09T16:23:06.301Z,100.00
2024-05-09T16:25:32.869Z,100.00
2024-05-09T16:27:59.771Z,100.00
2024-05-09T16:30:33.724Z,100.00
2024-05-09T16:33:03.052Z,100.00
2024-05-09T16:35:29.919Z,100.00
2024-05-09T16:37:56.993Z,100.00
2024-05-09T16:40:30.382Z,100.00
2024-05-09T16:43:04.719Z,100.00
2024-05-09T16:45:31.758Z,100.00
2024-05-09T16:47:59.643Z,100.00
2024-05-09T16:50:32.339Z,100.00
2024-05-09T16:53:00.892Z,100.00
2024-05-09T16:55:27.581Z,100.00
2024-05-09T16:57:55.073Z,100.00
2024-05-09T17:00:31.452Z,100.00
2024-05-09T17:03:06.640Z,100.00
2024-05-09T17:05:33.894Z,100.00
2024-05-09T17:08:01.100Z,100.00
2024-05-09T17:10:32.656Z,100.00
2024-05-09T17:13:01.869Z,100.00
2024-05-09T17:15:28.689Z,100.00
2024-05-09T17:17:55.940Z,100.00
2024-05-09T17:20:29.668Z,100.00
2024-05-09T17:23:01.518Z,100.00
2024-05-09T17:25:28.102Z,100.00
2024-05-09T17:27:54.739Z,100.00
2024-05-09T17:30:28.902Z,100.00
2024-05-09T17:33:01.851Z,100.00
2024-05-09T17:35:28.717Z,100.00
2024-05-09T17:37:55.342Z,100.00
2024-05-09T17:40:30.748Z,100.00
2024-05-09T17:43:01.090Z,100.00
2024-05-09T17:45:27.860Z,100.00
2024-05-09T17:47:54.784Z,100.00
2024-05-09T17:50:27.636Z,100.00
2024-05-09T17:53:00.753Z,100.00
2024-05-09T17:55:27.644Z,100.00
2024-05-09T17:57:54.298Z,100.00
2024-05-09T18:00:29.245Z,100.00
2024-05-09T18:03:04.303Z,100.00
2024-05-09T18:05:31.196Z,100.00
2024-05-09T18:07:58.041Z,100.00
2024-05-09T18:10:32.547Z,100.00
2024-05-09T18:13:03.228Z,100.00
2024-05-09T18:15:29.759Z,100.00
2024-05-09T18:17:56.534Z,100.00
2024-05-09T18:20:32.776Z,100.00
2024-05-09T18:23:07.494Z,100.00
2024-05-09T18:25:34.217Z,100.00
2024-05-09T18:28:02.617Z,100.00
2024-05-09T18:30:34.684Z,100.00
2024-05-09T18:33:03.905Z,100.00
2024-05-09T18:35:30.843Z,100.00
2024-05-09T18:37:57.459Z,100.00
2024-05-09T18:42:53.434Z,100.00
2024-05-09T18:45:19.974Z,100.00
2024-05-09T18:47:46.559Z,100.00
2024-05-09T18:50:20.461Z,100.00
2024-05-09T18:52:54.194Z,100.00
2024-05-09T18:55:21.026Z,100.00
2024-05-09T18:57:47.943Z,100.00
2024-05-09T19:00:26.666Z,100.00
2024-05-09T19:03:00.522Z,100.00
2024-05-09T19:05:27.611Z,100.00
2024-05-09T19:07:54.317Z,100.00
2024-05-09T19:10:23.024Z,100.00
2024-05-09T19:12:52.729Z,100.00
2024-05-09T19:15:19.380Z,100.00
2024-05-09T19:17:47.196Z,100.00
2024-05-09T19:20:24.777Z,100.00
2024-05-09T19:22:55.723Z,100.00
2024-05-09T19:25:22.201Z,100.00
2024-05-09T19:27:48.955Z,100.00
2024-05-09T19:30:25.058Z,100.00
2024-05-09T19:33:00.268Z,100.00
2024-05-09T19:35:26.814Z,100.00
2024-05-09T19:37:53.536Z,100.00
2024-05-09T19:40:28.531Z,100.00
2024-05-09T19:42:58.068Z,100.00
2024-05-09T19:45:24.564Z,100.00
2024-05-09T19:47:51.264Z,100.00
2024-05-09T19:50:26.635Z,100.00
2024-05-09T19:52:59.322Z,100.00
2024-05-09T19:55:26.242Z,100.00
2024-05-09T19:57:52.761Z,100.00
2024-05-09T20:00:26.065Z,100.00
2024-05-09T20:02:56.132Z,100.00
2024-05-09T20:05:23.239Z,100.00
2024-05-09T20:07:50.071Z,100.00
2024-05-09T20:10:23.474Z,100.00
2024-05-09T20:12:53.612Z,100.00
2024-05-09T20:15:20.238Z,100.00
2024-05-09T20:17:47.164Z,100.00
2024-05-09T20:20:24.493Z,100.00
2024-05-09T20:22:59.703Z,100.00
2024-05-09T20:25:26.264Z,100.00
2024-05-09T20:27:52.814Z,100.00
2024-05-09T20:30:28.679Z,100.00
2024-05-09T20:32:58.961Z,100.00
2024-05-09T20:35:26.327Z,100.00
2024-05-09T20:37:52.800Z,100.00
2024-05-09T20:40:26.110Z,100.00
2024-05-09T20:42:58.884Z,100.00
2024-05-09T20:45:25.576Z,100.00
2024-05-09T20:47:52.317Z,100.00
2024-05-09T20:50:27.998Z,100.00
2024-05-09T20:53:02.620Z,100.00
2024-05-09T20:55:29.813Z,100.00
2024-05-09T20:57:56.623Z,100.00
2024-05-09T21:00:30.050Z,100.00
2024-05-09T21:03:04.877Z,100.00
2024-05-09T21:05:31.895Z,100.00
2024-05-09T21:07:58.525Z,100.00
2024-05-09T21:12:53.121Z,100.00
2024-05-09T21:15:19.648Z,100.00
2024-05-09T21:17:46.488Z,100.00
2024-05-09T21:20:17.381Z,100.00
2024-05-09T21:22:47.438Z,100.00
2024-05-09T21:25:14.357Z,100.00
2024-05-09T21:27:41.011Z,100.00
2024-05-09T21:30:12.956Z,100.00
2024-05-09T21:32:44.915Z,100.00
2024-05-09T21:35:11.444Z,100.00
2024-05-09T21:37:37.878Z,100.00
2024-05-09T21:40:09.555Z,100.00
2024-05-09T21:42:40.110Z,100.00
2024-05-09T21:45:06.983Z,100.00
2024-05-09T21:47:37.446Z,100.00
2024-05-09T21:50:06.092Z,100.00
2024-05-09T21:52:34.154Z,100.00
2024-05-09T21:55:00.784Z,100.00
2024-05-09T21:57:27.355Z,100.00
2024-05-09T21:59:53.791Z,100.00
2024-05-09T22:02:20.355Z,100.00
2024-05-09T22:04:46.935Z,100.00
2024-05-09T22:07:13.584Z,100.00
2024-05-09T22:09:45.436Z,100.00
2024-05-09T22:12:12.325Z,100.00
2024-05-09T22:14:38.846Z,100.00
2024-05-09T22:17:05.362Z,100.00
2024-05-09T22:19:32.178Z,100.00
2024-05-09T22:21:58.768Z,100.00
2024-05-09T22:24:25.324Z,100.00
2024-05-09T22:26:53.508Z,100.00
2024-05-09T22:29:20.012Z,100.00
2024-05-09T22:31:46.476Z,100.00
2024-05-09T22:34:13.100Z,100.00
2024-05-09T22:36:39.675Z,100.00
2024-05-09T22:39:06.554Z,100.00
2024-05-09T22:41:33.011Z,100.00
2024-05-09T22:44:01.766Z,100.00
2024-05-09T22:46:28.635Z,100.00
2024-05-09T22:48:55.388Z,100.00
2024-05-09T22:51:22.006Z,100.00
2024-05-09T22:53:48.691Z,100.00
2024-05-09T22:56:25.630Z,100.00
2024-05-09T22:58:52.109Z,100.00
2024-05-09T23:01:19.001Z,100.00
2024-05-09T23:03:47.114Z,100.00
2024-05-09T23:06:14.263Z,100.00
2024-05-09T23:08:40.823Z,100.00
2024-05-09T23:11:07.409Z,100.00
2024-05-09T23:13:34.793Z,100.00
2024-05-09T23:16:03.312Z,100.00
2024-05-09T23:18:29.965Z,100.00
2024-05-09T23:20:56.692Z,100.00
2024-05-09T23:23:23.168Z,100.00
2024-05-09T23:25:49.931Z,100.00
2024-05-09T23:28:16.455Z,100.00
2024-05-09T23:30:43.046Z,100.00
2024-05-09T23:33:12.098Z,100.00
2024-05-09T23:35:42.146Z,100.00
2024-05-09T23:38:09.036Z,100.00
2024-05-09T23:40:39.606Z,100.00
2024-05-09T23:43:09.306Z,100.00
2024-05-09T23:45:36.266Z,100.00
2024-05-09T23:48:03.617Z,100.00
2024-05-09T23:50:35.921Z,100.00
2024-05-09T23:53:05.851Z,100.00
2024-05-09T23:55:32.885Z,100.00
2024-05-09T23:57:59.658Z,100.00
